Time;durP1;ratioP1;P1;durP2;ratioP2;P2;SDS_P1;SDS_P2;PMS_P1;PMS_P2;Temp;Humidity;BMP_temperature;BMP_pressure;BME280_temperature;BME280_humidity;BME280_pressure;Samples;Min_cycle;Max_cycle;Signal;HPM_P1;HPM_P2
2022/09/26 00:00:05;;;;;;;3.70;3.40;;;;;;;;;;6223521;23;20398;-90
2022/09/26 00:02:31;;;;;;;3.00;3.00;;;;;;;;;;6242516;23;20421;-90
2022/09/26 00:04:57;;;;;;;4.30;3.93;;;;;;;;;;6223878;23;20393;-91
2022/09/26 00:07:23;;;;;;;3.93;3.63;;;;;;;;;;6220055;23;20926;-91
2022/09/26 00:09:50;;;;;;;3.93;3.67;;;;;;;;;;6221077;23;20444;-89
2022/09/26 00:12:16;;;;;;;3.30;3.20;;;;;;;;;;6218677;23;20392;-90
2022/09/26 00:14:42;;;;;;;3.00;2.73;;;;;;;;;;6248085;22;20370;-91
2022/09/26 00:17:08;;;;;;;3.40;3.40;;;;;;;;;;6224318;23;20421;-89
2022/09/26 00:19:34;;;;;;;3.70;3.50;;;;;;;;;;6246721;22;20370;-90
2022/09/26 00:22:00;;;;;;;3.53;3.33;;;;;;;;;;6220288;23;20441;-89
2022/09/26 00:24:26;;;;;;;4.00;3.70;;;;;;;;;;6228134;23;20446;-90
2022/09/26 00:26:52;;;;;;;3.13;3.03;;;;;;;;;;6232569;23;20386;-90
2022/09/26 00:29:18;;;;;;;3.80;3.50;;;;;;;;;;6248462;22;20462;-90
2022/09/26 00:31:46;;;;;;;4.40;3.50;;;;;;;;;;6243115;22;20489;-90
2022/09/26 00:34:13;;;;;;;3.93;3.60;;;;;;;;;;6269995;22;20669;-90
2022/09/26 00:36:39;;;;;;;3.40;3.20;;;;;;;;;;6268657;22;20410;-91
2022/09/26 00:39:06;;;;;;;3.93;3.60;;;;;;;;;;6241654;23;20377;-90
2022/09/26 00:41:32;;;;;;;3.87;3.70;;;;;;;;;;6223062;23;20390;-91
2022/09/26 00:43:58;;;;;;;4.40;4.00;;;;;;;;;;6216800;22;20408;-89
2022/09/26 00:46:30;;;;;;;3.90;3.50;;;;;;;;;;6218341;23;20822;-90
2022/09/26 00:49:06;;;;;;;4.00;3.80;;;;;;;;;;6243084;22;20381;-89
2022/09/26 00:51:34;;;;;;;3.73;3.43;;;;;;;;;;6218041;23;20374;-90
2022/09/26 00:54:01;;;;;;;4.63;4.23;;;;;;;;;;6242833;22;20384;-89
2022/09/26 00:56:29;;;;;;;3.83;3.63;;;;;;;;;;6218708;23;21118;-90
2022/09/26 00:59:10;;;;;;;3.80;3.60;;;;;;;;;;6218326;22;20404;-90
2022/09/26 01:01:36;;;;;;;3.90;3.70;;;;;;;;;;6241746;22;20463;-91
2022/09/26 01:04:04;;;;;;;3.73;3.63;;;;;;;;;;6217662;22;20401;-90
2022/09/26 01:06:30;;;;;;;3.77;3.63;;;;;;;;;;6219430;23;20384;-90
2022/09/26 01:09:02;;;;;;;4.23;3.93;;;;;;;;;;6216401;23;20385;-90
2022/09/26 01:11:30;;;;;;;4.83;3.50;;;;;;;;;;6218855;23;20389;-90
2022/09/26 01:13:57;;;;;;;4.63;4.33;;;;;;;;;;6218579;22;20420;-90
2022/09/26 01:16:23;;;;;;;4.40;4.20;;;;;;;;;;6227328;23;20433;-91
2022/09/26 01:18:50;;;;;;;4.40;4.10;;;;;;;;;;6230528;22;20393;-89
2022/09/26 01:21:36;;;;;;;4.13;3.73;;;;;;;;;;6257692;23;20369;-90
2022/09/26 01:24:24;;;;;;;4.27;4.00;;;;;;;;;;6226642;22;20413;-89
2022/09/26 01:27:01;;;;;;;4.37;4.17;;;;;;;;;;6216719;23;20396;-89
2022/09/26 01:29:40;;;;;;;4.47;4.17;;;;;;;;;;6215435;23;20373;-90
2022/09/26 01:35:33;;;;;;;4.03;3.63;;;;;;;;;;6241612;22;20369;-90
2022/09/26 01:38:18;;;;;;;4.23;4.07;;;;;;;;;;6226815;23;20436;-90
2022/09/26 01:40:45;;;;;;;4.47;4.20;;;;;;;;;;6216313;23;20373;-90
2022/09/26 01:43:14;;;;;;;4.80;4.50;;;;;;;;;;6217821;23;20397;-90
2022/09/26 01:46:09;;;;;;;4.97;4.57;;;;;;;;;;6218079;23;20472;-90
2022/09/26 01:48:47;;;;;;;4.97;4.57;;;;;;;;;;6139673;22;20381;-91
2022/09/26 01:51:19;;;;;;;5.17;4.97;;;;;;;;;;6217529;23;20400;-91
2022/09/26 01:53:48;;;;;;;5.73;5.20;;;;;;;;;;6220512;23;20449;-90
2022/09/26 01:56:19;;;;;;;5.40;5.00;;;;;;;;;;6221880;23;20460;-90
2022/09/26 01:58:48;;;;;;;6.10;5.53;;;;;;;;;;6239809;23;20440;-88
2022/09/26 02:01:16;;;;;;;5.73;5.30;;;;;;;;;;6229466;23;20448;-89
2022/09/26 02:03:48;;;;;;;8.13;6.27;;;;;;;;;;6220102;23;20397;-90
2022/09/26 02:06:17;;;;;;;7.20;6.00;;;;;;;;;;6218027;23;20646;-91
2022/09/26 02:08:43;;;;;;;6.30;5.73;;;;;;;;;;6220901;23;20382;-89
2022/09/26 02:11:12;;;;;;;5.70;5.30;;;;;;;;;;6219938;23;20476;-93
2022/09/26 02:13:45;;;;;;;7.03;6.43;;;;;;;;;;6221203;23;20472;-92
2022/09/26 02:16:15;;;;;;;7.37;5.70;;;;;;;;;;6219609;23;20420;-92
2022/09/26 02:18:43;;;;;;;6.33;5.83;;;;;;;;;;6220496;23;20397;-91
2022/09/26 02:21:12;;;;;;;6.67;6.27;;;;;;;;;;6218099;23;20397;-90
2022/09/26 02:23:38;;;;;;;6.80;6.20;;;;;;;;;;6218936;23;20562;-90
2022/09/26 02:26:04;;;;;;;7.40;6.80;;;;;;;;;;6217569;23;20395;-91
2022/09/26 02:28:31;;;;;;;9.17;7.03;;;;;;;;;;6218795;23;20390;-91
2022/09/26 02:31:00;;;;;;;6.93;6.40;;;;;;;;;;6217430;23;20726;-91
2022/09/26 02:33:27;;;;;;;9.30;7.63;;;;;;;;;;6218278;23;21085;-91
2022/09/26 02:35:53;;;;;;;7.00;6.47;;;;;;;;;;6216494;23;20948;-93
2022/09/26 02:38:21;;;;;;;8.73;7.90;;;;;;;;;;6219805;23;20385;-91
2022/09/26 02:40:50;;;;;;;8.53;7.67;;;;;;;;;;6216926;23;20447;-91
2022/09/26 02:43:32;;;;;;;7.97;7.27;;;;;;;;;;6222071;23;20405;-91
2022/09/26 02:46:11;;;;;;;7.20;6.60;;;;;;;;;;6219079;23;20377;-91
2022/09/26 02:48:48;;;;;;;9.43;8.73;;;;;;;;;;6219902;23;20380;-90
2022/09/26 02:51:30;;;;;;;8.47;7.63;;;;;;;;;;6227137;23;20383;-91
2022/09/26 02:54:10;;;;;;;6.00;5.47;;;;;;;;;;6242015;22;20398;-92
2022/09/26 02:56:54;;;;;;;9.73;7.10;;;;;;;;;;6243946;23;20437;-90
2022/09/26 02:59:53;;;;;;;8.53;7.00;;;;;;;;;;6243716;22;20401;-90
2022/09/26 03:02:23;;;;;;;7.20;6.37;;;;;;;;;;6200473;23;20425;-92
2022/09/26 03:04:51;;;;;;;8.60;6.83;;;;;;;;;;6244532;23;20413;-91
2022/09/26 03:07:25;;;;;;;11.13;7.70;;;;;;;;;;6233223;23;20377;-91
2022/09/26 03:09:52;;;;;;;8.60;7.90;;;;;;;;;;6247950;23;20346;-92
2022/09/26 03:12:19;;;;;;;7.20;6.80;;;;;;;;;;6220197;23;20487;-93
2022/09/26 03:14:46;;;;;;;7.60;7.00;;;;;;;;;;6215466;23;20389;-91
2022/09/26 03:17:15;;;;;;;6.93;6.33;;;;;;;;;;6246715;23;20432;-91
2022/09/26 03:19:44;;;;;;;12.10;7.17;;;;;;;;;;6217320;23;20392;-92
2022/09/26 03:22:11;;;;;;;7.32;6.68;;;;;;;;;;6221761;23;20876;-91
2022/09/26 03:24:40;;;;;;;8.60;7.90;;;;;;;;;;6220968;23;20185;-91
2022/09/26 03:27:06;;;;;;;7.37;6.77;;;;;;;;;;6221234;23;20440;-91
2022/09/26 03:29:34;;;;;;;8.03;7.00;;;;;;;;;;6221258;23;20385;-92
2022/09/26 03:32:00;;;;;;;10.20;6.87;;;;;;;;;;6220594;23;20392;-90
2022/09/26 03:34:27;;;;;;;8.73;7.90;;;;;;;;;;6245886;22;20381;-91
2022/09/26 03:36:53;;;;;;;8.30;7.60;;;;;;;;;;6220983;23;20512;-92
2022/09/26 03:39:19;;;;;;;8.20;7.60;;;;;;;;;;6219337;22;20400;-91
2022/09/26 03:41:45;;;;;;;11.43;7.53;;;;;;;;;;6220264;23;20440;-91
2022/09/26 03:44:12;;;;;;;8.57;7.60;;;;;;;;;;6220478;23;20389;-92
2022/09/26 03:46:38;;;;;;;8.50;7.90;;;;;;;;;;6217744;23;20386;-92
2022/09/26 03:49:04;;;;;;;9.27;7.17;;;;;;;;;;6219536;23;20468;-89
2022/09/26 03:51:30;;;;;;;8.73;7.80;;;;;;;;;;6217586;23;20904;-91
2022/09/26 03:53:57;;;;;;;10.80;7.67;;;;;;;;;;6219796;23;20517;-91
2022/09/26 03:56:25;;;;;;;10.80;8.53;;;;;;;;;;6245316;22;20417;-92
2022/09/26 03:58:52;;;;;;;8.93;8.00;;;;;;;;;;6221584;23;20393;-92
2022/09/26 04:01:19;;;;;;;7.90;7.40;;;;;;;;;;6218022;23;20963;-91
2022/09/26 04:03:46;;;;;;;7.80;7.07;;;;;;;;;;6231181;23;20409;-91
2022/09/26 04:06:21;;;;;;;10.37;7.80;;;;;;;;;;6221053;23;20382;-89
2022/09/26 04:08:49;;;;;;;8.17;7.53;;;;;;;;;;6225025;23;20459;-92
2022/09/26 04:11:18;;;;;;;8.13;7.43;;;;;;;;;;6217349;23;20385;-92
2022/09/26 04:13:44;;;;;;;9.67;7.67;;;;;;;;;;6220522;23;20701;-91
2022/09/26 04:16:10;;;;;;;8.20;7.40;;;;;;;;;;6218401;23;20437;-91
2022/09/26 04:18:37;;;;;;;7.80;7.30;;;;;;;;;;6220122;23;20932;-91
2022/09/26 04:21:13;;;;;;;8.70;7.40;;;;;;;;;;6220624;23;20898;-90
2022/09/26 04:23:41;;;;;;;8.50;7.70;;;;;;;;;;6221846;23;20377;-90
2022/09/26 04:26:17;;;;;;;8.23;7.43;;;;;;;;;;6247213;23;20380;-90
2022/09/26 04:28:44;;;;;;;8.40;7.57;;;;;;;;;;6222344;23;20481;-91
2022/09/26 04:31:11;;;;;;;8.13;7.43;;;;;;;;;;6221028;23;20512;-91
2022/09/26 04:33:38;;;;;;;8.93;8.33;;;;;;;;;;6219202;23;20392;-91
2022/09/26 04:36:05;;;;;;;9.00;8.20;;;;;;;;;;6216398;23;20479;-91
2022/09/26 04:38:33;;;;;;;9.43;8.50;;;;;;;;;;6222014;23;20413;-92
2022/09/26 04:41:05;;;;;;;7.63;7.13;;;;;;;;;;6218343;23;20405;-92
2022/09/26 04:43:31;;;;;;;10.43;9.20;;;;;;;;;;6221650;23;20900;-91
2022/09/26 04:45:57;;;;;;;10.13;8.10;;;;;;;;;;6218841;23;20389;-91
2022/09/26 04:48:26;;;;;;;9.10;8.40;;;;;;;;;;6219763;23;20386;-89
2022/09/26 04:50:53;;;;;;;8.10;7.37;;;;;;;;;;6219695;23;20388;-89
2022/09/26 04:53:19;;;;;;;11.17;8.20;;;;;;;;;;6220036;23;20382;-89
2022/09/26 04:55:45;;;;;;;8.67;7.90;;;;;;;;;;6220727;23;20939;-91
2022/09/26 04:58:12;;;;;;;8.50;7.90;;;;;;;;;;6222590;23;20417;-91
2022/09/26 05:00:48;;;;;;;10.70;8.43;;;;;;;;;;6212104;23;21020;-91
2022/09/26 05:03:17;;;;;;;8.93;8.13;;;;;;;;;;6222185;23;20726;-90
2022/09/26 05:05:47;;;;;;;8.57;7.90;;;;;;;;;;6222024;23;20746;-91
2022/09/26 05:08:14;;;;;;;8.40;7.67;;;;;;;;;;6198663;23;20381;-89
2022/09/26 05:10:44;;;;;;;9.20;8.40;;;;;;;;;;6223207;23;20381;-92
2022/09/26 05:13:10;;;;;;;16.50;8.73;;;;;;;;;;6221739;23;20396;-90
2022/09/26 05:15:41;;;;;;;8.00;7.40;;;;;;;;;;6226153;23;20508;-90
2022/09/26 05:18:10;;;;;;;8.70;7.10;;;;;;;;;;6240142;22;20378;-92
2022/09/26 05:20:40;;;;;;;8.37;7.87;;;;;;;;;;6244010;22;20518;-91
2022/09/26 05:23:07;;;;;;;8.10;7.30;;;;;;;;;;6232057;23;20366;-91
2022/09/26 05:28:26;;;;;;;8.00;7.20;;;;;;;;;;6269138;22;20380;-91
2022/09/26 05:30:53;;;;;;;8.53;7.40;;;;;;;;;;6241970;23;20405;-88
2022/09/26 05:33:21;;;;;;;8.07;7.47;;;;;;;;;;6244111;22;20412;-92
2022/09/26 05:35:49;;;;;;;8.23;7.13;;;;;;;;;;6267017;22;20441;-90
2022/09/26 05:38:15;;;;;;;6.30;4.53;;;;;;;;;;6238820;23;20378;-89
2022/09/26 05:40:57;;;;;;;8.03;7.37;;;;;;;;;;6238130;23;20442;-90
2022/09/26 05:43:26;;;;;;;10.40;8.00;;;;;;;;;;6240653;23;20385;-88
2022/09/26 05:45:59;;;;;;;13.15;6.68;;;;;;;;;;6257278;22;20400;-88
2022/09/26 05:48:28;;;;;;;12.50;6.70;;;;;;;;;;6242141;23;20171;-89
2022/09/26 05:50:54;;;;;;;7.10;6.50;;;;;;;;;;6237030;23;20421;-91
2022/09/26 05:53:21;;;;;;;6.93;6.23;;;;;;;;;;6235557;23;20378;-91
2022/09/26 05:55:50;;;;;;;6.40;6.00;;;;;;;;;;6227701;23;20416;-92
2022/09/26 05:58:20;;;;;;;6.23;5.73;;;;;;;;;;6230482;23;20401;-91
2022/09/26 06:00:50;;;;;;;6.90;6.10;;;;;;;;;;6226401;22;20622;-90
2022/09/26 06:03:16;;;;;;;6.93;6.43;;;;;;;;;;6256852;23;20358;-92
2022/09/26 06:05:43;;;;;;;7.23;6.63;;;;;;;;;;6239957;23;20412;-92
2022/09/26 06:08:09;;;;;;;7.33;6.60;;;;;;;;;;6239321;23;20719;-87
2022/09/26 06:10:54;;;;;;;6.63;6.03;;;;;;;;;;6259327;22;20374;-92
2022/09/26 06:13:20;;;;;;;7.97;5.87;;;;;;;;;;6236571;23;20366;-90
2022/09/26 06:15:48;;;;;;;7.30;5.47;;;;;;;;;;6232676;23;20425;-87
2022/09/26 06:18:14;;;;;;;5.27;4.93;;;;;;;;;;6230841;23;20386;-92
2022/09/26 06:20:40;;;;;;;5.30;4.90;;;;;;;;;;6234528;23;20453;-93
2022/09/26 06:23:06;;;;;;;6.73;6.20;;;;;;;;;;6236179;23;20433;-88
2022/09/26 06:25:32;;;;;;;6.37;5.87;;;;;;;;;;6257532;22;20405;-92
2022/09/26 06:28:02;;;;;;;6.40;5.80;;;;;;;;;;6237733;23;20434;-89
2022/09/26 06:30:28;;;;;;;6.83;6.10;;;;;;;;;;6235024;23;20384;-90
2022/09/26 06:32:57;;;;;;;7.07;6.43;;;;;;;;;;6238120;23;20361;-92
2022/09/26 06:35:23;;;;;;;6.13;5.73;;;;;;;;;;6232869;23;20409;-90
2022/09/26 06:37:56;;;;;;;6.67;6.27;;;;;;;;;;6229158;23;20435;-92
2022/09/26 06:40:25;;;;;;;5.90;5.60;;;;;;;;;;6231348;23;20389;-90
2022/09/26 06:42:51;;;;;;;8.50;5.90;;;;;;;;;;6234316;23;20444;-90
2022/09/26 06:45:17;;;;;;;6.93;6.40;;;;;;;;;;6245959;22;20382;-88
2022/09/26 06:47:45;;;;;;;6.03;5.50;;;;;;;;;;6214111;23;20453;-87
2022/09/26 06:50:14;;;;;;;5.37;5.07;;;;;;;;;;6237489;22;20392;-86
2022/09/26 06:52:42;;;;;;;7.27;5.83;;;;;;;;;;6212171;23;20389;-88
2022/09/26 06:55:12;;;;;;;5.73;5.30;;;;;;;;;;6210772;22;20400;-88
2022/09/26 06:57:39;;;;;;;4.00;3.80;;;;;;;;;;6240142;23;20681;-87
2022/09/26 07:00:05;;;;;;;6.73;6.27;;;;;;;;;;6212254;22;20417;-87
2022/09/26 07:02:31;;;;;;;5.63;5.23;;;;;;;;;;6234872;22;20420;-86
2022/09/26 07:04:58;;;;;;;5.53;5.17;;;;;;;;;;6246626;22;20865;-87
2022/09/26 07:07:24;;;;;;;5.17;4.87;;;;;;;;;;6218254;23;20372;-88
2022/09/26 07:09:50;;;;;;;8.53;5.03;;;;;;;;;;6241346;22;20404;-87
2022/09/26 07:12:21;;;;;;;5.90;5.37;;;;;;;;;;6238431;22;20384;-88
2022/09/26 07:14:47;;;;;;;5.27;4.83;;;;;;;;;;6240839;22;20916;-86
2022/09/26 07:17:14;;;;;;;5.70;5.20;;;;;;;;;;6238060;22;20417;-87
2022/09/26 07:19:40;;;;;;;5.43;5.20;;;;;;;;;;6242983;22;20715;-87
2022/09/26 07:22:08;;;;;;;5.40;5.00;;;;;;;;;;6240540;22;20516;-85
2022/09/26 07:24:34;;;;;;;5.90;5.30;;;;;;;;;;6217281;23;20381;-86
2022/09/26 07:27:00;;;;;;;5.97;5.23;;;;;;;;;;6242261;22;20569;-88
2022/09/26 07:29:32;;;;;;;6.33;4.70;;;;;;;;;;6243546;22;20401;-88
2022/09/26 07:32:14;;;;;;;;;;;;;;;;;;;;;
2022/09/26 07:34:50;;;;;;;5.90;5.40;;;;;;;;;;6260802;23;20361;-91
2022/09/26 07:37:18;;;;;;;5.80;5.37;;;;;;;;;;6228395;23;20421;-91
2022/09/26 07:39:48;;;;;;;5.00;4.53;;;;;;;;;;6224887;23;20757;-89
2022/09/26 07:42:16;;;;;;;5.93;5.13;;;;;;;;;;6265024;22;20485;-87
2022/09/26 07:44:49;;;;;;;5.20;4.80;;;;;;;;;;6243875;23;20408;-88
2022/09/26 07:50:22;;;;;;;6.37;5.87;;;;;;;;;;6099494;23;20445;-91
2022/09/26 07:52:49;;;;;;;4.10;3.80;;;;;;;;;;6223776;23;20369;-90
2022/09/26 07:55:21;;;;;;;4.90;4.60;;;;;;;;;;6232333;23;20693;-90
2022/09/26 07:57:48;;;;;;;6.60;6.13;;;;;;;;;;6259187;23;20433;-87
2022/09/26 08:00:18;;;;;;;6.40;5.87;;;;;;;;;;6258108;22;20401;-94
2022/09/26 08:02:45;;;;;;;12.90;6.10;;;;;;;;;;6228438;23;20457;-91
2022/09/26 08:05:21;;;;;;;5.67;5.20;;;;;;;;;;6235644;23;20400;-88
2022/09/26 08:07:48;;;;;;;5.90;5.50;;;;;;;;;;6221967;23;20385;-89
2022/09/26 08:10:18;;;;;;;5.60;5.20;;;;;;;;;;6215836;22;20381;-85
2022/09/26 08:12:45;;;;;;;6.80;6.23;;;;;;;;;;6247597;23;20843;-88
2022/09/26 08:15:14;;;;;;;7.60;5.40;;;;;;;;;;6224077;23;21023;-88
2022/09/26 08:17:42;;;;;;;6.57;5.60;;;;;;;;;;6224879;23;20429;-89
2022/09/26 08:20:09;;;;;;;5.40;4.90;;;;;;;;;;6222507;23;20388;-88
2022/09/26 08:22:35;;;;;;;6.43;5.87;;;;;;;;;;6220200;23;20354;-87
2022/09/26 08:25:07;;;;;;;8.87;5.67;;;;;;;;;;6256649;22;20752;-89
2022/09/26 08:27:37;;;;;;;6.63;6.03;;;;;;;;;;6234339;23;20390;-89
2022/09/26 08:30:09;;;;;;;6.90;6.20;;;;;;;;;;6231626;23;20385;-89
2022/09/26 08:32:38;;;;;;;5.47;5.13;;;;;;;;;;6225982;23;20386;-90
2022/09/26 08:35:05;;;;;;;8.33;6.00;;;;;;;;;;6222227;22;20378;-90
2022/09/26 08:37:31;;;;;;;6.53;5.87;;;;;;;;;;6217541;23;20500;-90
2022/09/26 08:39:57;;;;;;;5.40;4.87;;;;;;;;;;6222567;23;20869;-90
2022/09/26 08:42:40;;;;;;;6.47;5.70;;;;;;;;;;6215967;23;20377;-89
2022/09/26 08:48:25;;;;;;;10.70;6.63;;;;;;;;;;6241983;23;20337;-89
2022/09/26 08:50:56;;;;;;;8.00;5.50;;;;;;;;;;6245362;22;20373;-87
2022/09/26 08:53:27;;;;;;;5.00;4.70;;;;;;;;;;6220217;23;20741;-90
2022/09/26 08:55:55;;;;;;;4.60;4.40;;;;;;;;;;6218073;23;20425;-90
2022/09/26 08:58:21;;;;;;;6.33;5.80;;;;;;;;;;6219478;23;20393;-89
2022/09/26 09:00:50;;;;;;;5.13;4.83;;;;;;;;;;6216732;23;20581;-90
2022/09/26 09:03:29;;;;;;;5.73;5.10;;;;;;;;;;6254710;23;20459;-89
2022/09/26 09:06:05;;;;;;;5.23;4.77;;;;;;;;;;6219355;23;20397;-88
2022/09/26 09:08:34;;;;;;;4.93;4.73;;;;;;;;;;6228125;23;20435;-88
2022/09/26 09:11:13;;;;;;;4.37;4.17;;;;;;;;;;6229725;23;20385;-85
2022/09/26 09:13:45;;;;;;;3.77;3.53;;;;;;;;;;6228740;23;20361;-87
2022/09/26 09:16:14;;;;;;;3.93;3.63;;;;;;;;;;6244663;22;20976;-86
2022/09/26 09:18:53;;;;;;;4.37;3.87;;;;;;;;;;6221525;23;20374;-84
2022/09/26 09:21:25;;;;;;;5.30;3.50;;;;;;;;;;6217997;23;20455;-89
2022/09/26 09:23:54;;;;;;;4.40;3.67;;;;;;;;;;6217882;23;20472;-89
2022/09/26 09:26:36;;;;;;;7.83;5.03;;;;;;;;;;6242478;22;20469;-89
2022/09/26 09:29:21;;;;;;;3.50;3.33;;;;;;;;;;6216707;23;20370;-87
2022/09/26 09:31:51;;;;;;;2.97;2.90;;;;;;;;;;6216955;23;20389;-89
2022/09/26 09:34:25;;;;;;;3.70;3.40;;;;;;;;;;6220442;23;20451;-87
2022/09/26 09:36:54;;;;;;;3.77;2.83;;;;;;;;;;6217359;23;20542;-86
2022/09/26 09:39:35;;;;;;;3.33;3.13;;;;;;;;;;6238169;23;20441;-85
2022/09/26 09:42:30;;;;;;;4.03;3.93;;;;;;;;;;6209318;23;20373;-87
2022/09/26 09:45:05;;;;;;;3.33;3.23;;;;;;;;;;6213182;23;20365;-86
2022/09/26 09:47:34;;;;;;;3.87;2.53;;;;;;;;;;6210716;23;20400;-88
2022/09/26 09:50:00;;;;;;;3.27;3.07;;;;;;;;;;6212841;23;20386;-88
2022/09/26 09:52:43;;;;;;;4.40;2.93;;;;;;;;;;6236548;22;20369;-85
2022/09/26 09:55:15;;;;;;;3.23;3.00;;;;;;;;;;6238769;23;20365;-85
2022/09/26 09:57:50;;;;;;;5.80;3.50;;;;;;;;;;6208805;23;20440;-86
2022/09/26 10:00:17;;;;;;;5.67;3.93;;;;;;;;;;6240005;22;20765;-87
2022/09/26 10:02:53;;;;;;;3.63;2.70;;;;;;;;;;6208143;23;20737;-88
2022/09/26 10:05:24;;;;;;;3.87;3.67;;;;;;;;;;6244107;22;20225;-89
2022/09/26 10:07:56;;;;;;;3.90;3.07;;;;;;;;;;6217572;23;20385;-83
2022/09/26 10:10:27;;;;;;;3.03;2.93;;;;;;;;;;6218051;23;20378;-89
2022/09/26 10:12:59;;;;;;;2.47;2.47;;;;;;;;;;6223540;23;20362;-89
2022/09/26 10:15:26;;;;;;;2.47;2.40;;;;;;;;;;6241243;22;20362;-89
2022/09/26 10:18:05;;;;;;;2.90;2.70;;;;;;;;;;6236145;23;20455;-89
2022/09/26 10:20:37;;;;;;;3.03;2.80;;;;;;;;;;6249994;23;20403;-88
2022/09/26 10:23:12;;;;;;;2.53;2.50;;;;;;;;;;6256832;23;20362;-85
2022/09/26 10:25:38;;;;;;;3.17;3.13;;;;;;;;;;6236545;23;20464;-88
2022/09/26 10:28:04;;;;;;;3.37;3.17;;;;;;;;;;6266245;22;20361;-91
2022/09/26 10:30:32;;;;;;;3.33;2.83;;;;;;;;;;6234678;23;20377;-91
2022/09/26 10:32:59;;;;;;;2.70;2.53;;;;;;;;;;6231236;23;20401;-88
2022/09/26 10:35:44;;;;;;;2.87;2.87;;;;;;;;;;6223892;23;20408;-91
2022/09/26 10:38:18;;;;;;;2.50;2.50;;;;;;;;;;6219676;23;20373;-87
2022/09/26 10:40:53;;;;;;;3.23;3.10;;;;;;;;;;6247011;23;20388;-89
2022/09/26 10:43:36;;;;;;;2.77;2.67;;;;;;;;;;6222591;23;20447;-88
2022/09/26 10:46:06;;;;;;;3.90;3.70;;;;;;;;;;6221473;23;20896;-88
2022/09/26 10:51:07;;;;;;;3.30;3.20;;;;;;;;;;6222597;23;20419;-88
2022/09/26 10:53:36;;;;;;;3.90;3.70;;;;;;;;;;6187775;23;20398;-90
2022/09/26 10:56:08;;;;;;;3.13;2.20;;;;;;;;;;6185378;23;20430;-91
2022/09/26 10:58:56;;;;;;;3.80;3.57;;;;;;;;;;6186427;23;20405;-90
2022/09/26 11:01:31;;;;;;;3.70;3.40;;;;;;;;;;6201147;23;20468;-92
2022/09/26 11:04:00;;;;;;;2.97;2.87;;;;;;;;;;6221121;23;20478;-90
2022/09/26 11:06:55;;;;;;;5.53;3.27;;;;;;;;;;6247096;23;20389;-92
2022/09/26 11:09:30;;;;;;;2.63;2.63;;;;;;;;;;6240957;23;20376;-90
2022/09/26 11:11:56;;;;;;;3.27;2.97;;;;;;;;;;6250601;23;20936;-92
2022/09/26 11:14:26;;;;;;;2.73;2.63;;;;;;;;;;6219182;23;20405;-92
2022/09/26 11:16:53;;;;;;;2.40;2.40;;;;;;;;;;6218426;23;20921;-89
2022/09/26 11:19:57;;;;;;;2.40;2.40;;;;;;;;;;6225895;23;20409;-94
2022/09/26 11:22:41;;;;;;;2.80;2.70;;;;;;;;;;6225978;23;20665;-92
2022/09/26 11:25:16;;;;;;;1.90;1.90;;;;;;;;;;6224923;23;20389;-93
2022/09/26 11:27:48;;;;;;;2.77;2.57;;;;;;;;;;6251720;23;20407;-95
2022/09/26 11:30:37;;;;;;;2.13;1.90;;;;;;;;;;6226320;23;20386;-93
2022/09/26 11:33:11;;;;;;;3.00;2.90;;;;;;;;;;6207276;23;20441;-92
2022/09/26 11:35:53;;;;;;;3.10;3.10;;;;;;;;;;6253297;23;20475;-91
2022/09/26 11:38:22;;;;;;;3.00;2.90;;;;;;;;;;6256970;23;20422;-93
2022/09/26 11:41:07;;;;;;;3.07;3.03;;;;;;;;;;6226350;23;20389;-92
2022/09/26 11:44:03;;;;;;;2.57;2.50;;;;;;;;;;6231313;23;20393;-93
2022/09/26 11:46:57;;;;;;;2.80;2.80;;;;;;;;;;6257181;23;20408;-89
2022/09/26 11:49:53;;;;;;;2.60;2.60;;;;;;;;;;6235984;23;20417;-90
2022/09/26 11:52:32;;;;;;;2.50;2.40;;;;;;;;;;6261153;23;20366;-92
2022/09/26 11:58:08;;;;;;;2.73;2.63;;;;;;;;;;6260652;23;20405;-90
2022/09/26 12:00:58;;;;;;;2.97;2.50;;;;;;;;;;6225874;23;20774;-92
2022/09/26 12:17:42;;;;;;;2.20;2.10;;;;;;;;;;6163593;23;20523;-93
2022/09/26 12:20:46;;;;;;;2.10;2.10;;;;;;;;;;6140264;23;20408;-93
2022/09/26 12:23:13;;;;;;;2.67;2.67;;;;;;;;;;6063802;23;20919;-94
2022/09/26 12:29:06;;;;;;;3.20;2.80;;;;;;;;;;6194879;23;20413;-91
2022/09/26 12:34:53;;;;;;;2.93;2.80;;;;;;;;;;6156559;23;20514;-94
2022/09/26 12:37:33;;;;;;;2.73;2.70;;;;;;;;;;6224318;23;20502;-89
2022/09/26 12:40:37;;;;;;;3.23;3.13;;;;;;;;;;6204618;23;20408;-91
2022/09/26 12:43:12;;;;;;;2.10;2.10;;;;;;;;;;6212535;23;20509;-89
2022/09/26 12:46:17;;;;;;;3.57;3.33;;;;;;;;;;6201814;23;20393;-89
2022/09/26 12:48:54;;;;;;;2.97;2.90;;;;;;;;;;6204636;23;20392;-84
2022/09/26 12:51:42;;;;;;;3.47;3.37;;;;;;;;;;6199155;23;20418;-91
2022/09/26 12:54:14;;;;;;;2.80;2.70;;;;;;;;;;6197355;23;20367;-91
2022/09/26 12:56:43;;;;;;;2.43;2.43;;;;;;;;;;6209955;23;20492;-91
2022/09/26 13:02:47;;;;;;;2.73;2.57;;;;;;;;;;6174926;23;20367;-90
2022/09/26 13:05:46;;;;;;;;;;;;;;;;;;;;;
2022/09/26 13:08:18;;;;;;;3.10;2.80;;;;;;;;;;6150304;23;20418;-91
2022/09/26 13:10:47;;;;;;;3.00;2.60;;;;;;;;;;6159784;23;20395;-93
2022/09/26 13:13:58;;;;;;;2.03;1.93;;;;;;;;;;6161250;23;20539;-91
2022/09/26 13:16:29;;;;;;;2.47;2.30;;;;;;;;;;6157432;23;20445;-89
2022/09/26 13:18:58;;;;;;;2.23;2.23;;;;;;;;;;6158553;23;20444;-90
2022/09/26 13:21:43;;;;;;;3.20;2.10;;;;;;;;;;6158678;23;20961;-92
2022/09/26 13:24:33;;;;;;;2.17;2.07;;;;;;;;;;6187975;23;20349;-91
2022/09/26 13:27:11;;;;;;;1.93;1.83;;;;;;;;;;6186980;23;20686;-93
2022/09/26 13:30:01;;;;;;;4.23;2.30;;;;;;;;;;6163016;23;20398;-92
2022/09/26 13:35:35;;;;;;;2.13;2.13;;;;;;;;;;6163220;23;20702;-92
2022/09/26 13:38:01;;;;;;;2.37;2.17;;;;;;;;;;6161076;23;20392;-91
2022/09/26 13:40:38;;;;;;;2.37;2.27;;;;;;;;;;6159401;23;20418;-90
2022/09/26 13:43:23;;;;;;;4.50;2.93;;;;;;;;;;6163613;23;20397;-91
2022/09/26 13:46:14;;;;;;;3.27;2.70;;;;;;;;;;6189154;23;20389;-91
2022/09/26 13:48:59;;;;;;;3.20;2.90;;;;;;;;;;6163719;23;20953;-90
2022/09/26 13:51:32;;;;;;;1.97;1.97;;;;;;;;;;6160501;23;20926;-90
2022/09/26 13:54:17;;;;;;;3.30;2.40;;;;;;;;;;6160889;23;21021;-90
2022/09/26 13:56:49;;;;;;;2.70;2.60;;;;;;;;;;6189028;23;20950;-89
2022/09/26 13:59:18;;;;;;;2.23;2.13;;;;;;;;;;6164339;23;20395;-90
2022/09/26 14:04:31;;;;;;;2.60;2.50;;;;;;;;;;6219755;22;20450;-90
2022/09/26 14:10:06;;;;;;;2.73;2.73;;;;;;;;;;6223817;23;20374;-89
2022/09/26 14:15:32;;;;;;;3.07;2.87;;;;;;;;;;6227151;23;20429;-93
2022/09/26 14:18:31;;;;;;;2.40;2.30;;;;;;;;;;6201223;23;20395;-90
2022/09/26 14:21:36;;;;;;;2.90;2.80;;;;;;;;;;6200857;23;20379;-92
2022/09/26 14:24:20;;;;;;;2.80;2.40;;;;;;;;;;6106826;23;20397;-93
2022/09/26 14:27:19;;;;;;;2.73;2.37;;;;;;;;;;6220681;23;20449;-93
2022/09/26 14:29:52;;;;;;;3.23;2.33;;;;;;;;;;6201709;23;20402;-92
2022/09/26 14:32:37;;;;;;;3.20;2.90;;;;;;;;;;6227562;23;20394;-91
2022/09/26 14:40:23;;;;;;;2.73;2.63;;;;;;;;;;6218104;22;20964;-93
2022/09/26 14:42:52;;;;;;;7.93;3.10;;;;;;;;;;6165311;22;20450;-89
2022/09/26 14:45:52;;;;;;;4.30;4.00;;;;;;;;;;6216246;22;20501;-95
2022/09/26 14:51:24;;;;;;;3.63;3.53;;;;;;;;;;6230586;22;20465;-89
2022/09/26 14:54:02;;;;;;;3.57;3.30;;;;;;;;;;6191114;23;20545;-90
2022/09/26 15:27:31;;;;;;;4.43;2.97;;;;;;;;;;6266976;22;20457;-94
2022/09/26 15:33:19;;;;;;;;;;;;;;;;;;;;;
2022/09/26 15:38:38;;;;;;;4.23;4.00;;;;;;;;;;6218210;22;20940;-92
2022/09/26 16:05:48;;;;;;;;;;;;;;;;;;;;;
2022/09/26 16:27:49;;;;;;;;;;;;;;;;;;;;;
2022/09/26 16:53:59;;;;;;;;;;;;;;;;;;;;;
2022/09/26 16:56:47;;;;;;;5.93;4.87;;;;;;;;;;6232014;22;20461;-92
2022/09/26 16:59:15;;;;;;;5.00;4.70;;;;;;;;;;6235482;23;20381;-93
2022/09/26 17:01:56;;;;;;;5.37;5.03;;;;;;;;;;6261718;23;20382;-93
2022/09/26 17:04:55;;;;;;;4.40;4.20;;;;;;;;;;6234982;23;20394;-93
2022/09/26 17:07:26;;;;;;;6.13;5.73;;;;;;;;;;6198527;23;20381;-94
2022/09/26 17:10:09;;;;;;;4.93;4.63;;;;;;;;;;6260697;23;20461;-91
2022/09/26 17:12:49;;;;;;;5.00;4.70;;;;;;;;;;6234249;23;20722;-90
2022/09/26 17:15:41;;;;;;;7.00;5.83;;;;;;;;;;6237478;23;20384;-93
2022/09/26 17:18:10;;;;;;;5.90;5.40;;;;;;;;;;6214817;23;20389;-92
2022/09/26 17:20:45;;;;;;;5.57;5.37;;;;;;;;;;6231354;23;20468;-95
2022/09/26 17:23:13;;;;;;;7.27;5.03;;;;;;;;;;6225849;23;20385;-94
2022/09/26 18:15:26;;;;;;;4.90;4.70;;;;;;;;;;6237723;22;20449;-88
2022/09/26 18:21:02;;;;;;;5.80;5.50;;;;;;;;;;6150790;23;20372;-88
2022/09/26 18:23:47;;;;;;;5.43;5.13;;;;;;;;;;6203009;23;20509;-91
2022/09/26 18:26:37;;;;;;;5.70;5.40;;;;;;;;;;6221088;23;20393;-90
2022/09/26 18:29:34;;;;;;;5.00;4.80;;;;;;;;;;6221974;23;20428;-91
2022/09/26 18:53:54;;;;;;;6.50;6.10;;;;;;;;;;6225698;23;20390;-92
2022/09/26 21:55:11;;;;;;;25.97;11.50;;;;;;;;;;6212227;22;20473;-90
2022/09/26 21:57:40;;;;;;;21.13;10.37;;;;;;;;;;6192114;23;20485;-89
2022/09/26 22:03:01;;;;;;;13.13;9.37;;;;;;;;;;6195731;22;20522;-93
2022/09/26 22:29:11;;;;;;;11.83;10.73;;;;;;;;;;6170379;23;20452;-92
2022/09/26 22:31:47;;;;;;;13.53;12.10;;;;;;;;;;6147338;23;20424;-92
2022/09/26 22:45:27;;;;;;;17.20;13.63;;;;;;;;;;6219395;22;20472;-91
2022/09/26 22:48:02;;;;;;;15.83;12.73;;;;;;;;;;6175011;23;20478;-91
2022/09/26 22:51:01;;;;;;;13.87;12.40;;;;;;;;;;6204231;23;20408;-93
2022/09/26 22:59:11;;;;;;;16.00;13.00;;;;;;;;;;6244252;22;20452;-94
2022/09/26 23:20:02;;;;;;;9.97;7.77;;;;;;;;;;6253380;22;20523;-91
2022/09/26 23:25:20;;;;;;;8.40;7.53;;;;;;;;;;6220256;23;20418;-92